createdAt,value
2023-03-01T00:01:23.240Z,45.73
2023-03-01T00:03:53.888Z,42.20
2023-03-01T00:06:23.044Z,44.30
2023-03-01T00:08:51.384Z,45.40
2023-03-01T00:11:21.917Z,43.93
2023-03-01T00:13:51.576Z,44.27
2023-03-01T00:16:21.515Z,40.73
2023-03-01T00:18:49.762Z,40.67
2023-03-01T00:21:20.312Z,43.17
2023-03-01T00:23:49.646Z,44.17
2023-03-01T00:26:19.772Z,51.23
2023-03-01T00:28:48.716Z,44.03
2023-03-01T00:31:18.386Z,44.73
2023-03-01T00:33:47.027Z,46.10
2023-03-01T00:36:16.982Z,47.10
2023-03-01T00:38:47.948Z,47.10
2023-03-01T00:41:18.620Z,46.60
2023-03-01T00:43:47.300Z,47.13
2023-03-01T00:46:17.800Z,46.80
2023-03-01T00:48:46.783Z,48.63
2023-03-01T00:51:21.525Z,46.70
2023-03-01T00:53:52.787Z,45.07
2023-03-01T00:56:21.460Z,45.87
2023-03-01T00:58:50.503Z,46.37
2023-03-01T01:01:21.344Z,45.53
2023-03-01T01:03:51.556Z,45.67
2023-03-01T01:06:22.069Z,44.83
2023-03-01T01:08:52.140Z,44.97
2023-03-01T01:11:21.230Z,45.97
2023-03-01T01:13:52.951Z,45.27
2023-03-01T01:16:22.658Z,47.77
2023-03-01T01:18:51.486Z,49.27
2023-03-01T01:21:23.943Z,48.47
2023-03-01T01:23:54.090Z,48.93
2023-03-01T01:26:24.734Z,51.07
2023-03-01T01:28:53.700Z,49.73
2023-03-01T01:31:24.735Z,49.97
2023-03-01T01:33:53.143Z,49.37
2023-03-01T01:36:21.958Z,50.50
2023-03-01T01:38:50.448Z,50.13
2023-03-01T01:41:21.236Z,51.60
2023-03-01T01:43:51.488Z,53.27
2023-03-01T01:46:30.840Z,50.97
2023-03-01T01:49:03.323Z,50.53
2023-03-01T01:51:39.605Z,48.93
2023-03-01T01:54:15.131Z,51.37
2023-03-01T01:56:50.083Z,52.77
2023-03-01T01:59:18.411Z,51.30
2023-03-01T02:01:46.651Z,60.10
2023-03-01T02:04:14.789Z,55.40
2023-03-01T02:06:51.466Z,55.60
2023-03-01T02:09:22.531Z,57.37
2023-03-01T02:11:53.519Z,59.03
2023-03-01T02:14:22.079Z,56.40
2023-03-01T02:16:50.735Z,56.53
2023-03-01T02:19:36.714Z,57.73
2023-03-01T02:22:10.997Z,57.87
2023-03-01T02:24:47.552Z,57.87
2023-03-01T02:27:18.913Z,60.97
2023-03-01T02:29:48.464Z,57.40
2023-03-01T02:32:16.592Z,57.33
2023-03-01T02:34:44.941Z,57.47
2023-03-01T02:37:21.565Z,60.33
2023-03-01T02:39:53.401Z,61.67
2023-03-01T02:42:28.314Z,58.60
2023-03-01T02:44:57.725Z,59.00
2023-03-01T02:47:25.892Z,57.07
2023-03-01T02:49:54.340Z,57.10
2023-03-01T02:52:34.990Z,57.47
2023-03-01T02:55:05.407Z,59.10
2023-03-01T02:57:35.592Z,58.37
2023-03-01T03:00:09.170Z,56.83
2023-03-01T03:02:39.098Z,55.33
2023-03-01T03:05:14.244Z,52.57
2023-03-01T03:07:44.559Z,53.20
2023-03-01T03:10:15.607Z,51.27
2023-03-01T03:12:44.139Z,54.37
2023-03-01T03:15:13.975Z,52.03
2023-03-01T03:17:45.273Z,54.87
2023-03-01T03:20:20.153Z,55.10
2023-03-01T03:22:49.566Z,51.90
2023-03-01T03:25:18.348Z,54.77
2023-03-01T03:27:48.448Z,56.60
2023-03-01T03:30:20.749Z,53.03
2023-03-01T03:32:53.437Z,57.27
2023-03-01T03:35:23.440Z,57.20
2023-03-01T03:38:07.365Z,57.10
2023-03-01T03:40:38.231Z,56.63
2023-03-01T03:43:08.994Z,56.37
2023-03-01T03:45:39.136Z,55.37
2023-03-01T03:48:10.394Z,54.20
2023-03-01T03:50:39.062Z,54.50
2023-03-01T03:53:08.862Z,55.23
2023-03-01T03:55:40.311Z,53.13
2023-03-01T03:58:10.802Z,51.50
2023-03-01T04:00:42.736Z,52.50
2023-03-01T04:03:12.440Z,52.80
2023-03-01T04:05:41.570Z,54.97
2023-03-01T04:08:11.024Z,53.57
2023-03-01T04:10:41.266Z,53.03
2023-03-01T04:13:13.019Z,52.20
2023-03-01T04:15:44.078Z,53.63
2023-03-01T04:18:14.949Z,52.33
2023-03-01T04:20:44.141Z,53.10
2023-03-01T04:23:16.782Z,52.93
2023-03-01T04:25:50.536Z,54.23
2023-03-01T04:28:18.828Z,54.27
2023-03-01T04:30:48.226Z,54.57
2023-03-01T04:33:16.268Z,53.37
2023-03-01T04:35:44.658Z,51.07
2023-03-01T04:38:12.951Z,50.90
2023-03-01T04:40:43.529Z,50.93
2023-03-01T04:43:12.504Z,50.73
2023-03-01T04:45:40.629Z,48.90
2023-03-01T04:48:10.265Z,50.00
2023-03-01T04:50:38.551Z,44.60
2023-03-01T04:53:06.598Z,45.07
2023-03-01T04:55:35.965Z,44.77
2023-03-01T04:58:04.011Z,44.27
2023-03-01T05:00:32.149Z,46.87
2023-03-01T05:03:02.687Z,44.80
2023-03-01T05:05:36.149Z,44.17
2023-03-01T05:08:06.371Z,44.63
2023-03-01T05:10:36.518Z,47.43
2023-03-01T05:13:06.208Z,47.67
2023-03-01T05:15:34.785Z,49.03
2023-03-01T05:18:02.910Z,46.53
2023-03-01T05:20:32.661Z,48.30
2023-03-01T05:23:06.327Z,49.20
2023-03-01T05:25:41.301Z,49.90
2023-03-01T05:28:13.829Z,48.73
2023-03-01T05:30:42.599Z,50.00
2023-03-01T05:33:14.674Z,49.93
2023-03-01T05:35:45.294Z,51.73
2023-03-01T05:38:15.256Z,51.57
2023-03-01T05:40:44.617Z,51.20
2023-03-01T05:43:13.234Z,53.33
2023-03-01T05:45:42.826Z,53.07
2023-03-01T05:48:12.132Z,51.27
2023-03-01T05:50:42.227Z,55.70
2023-03-01T05:53:13.902Z,53.67
2023-03-01T05:55:42.074Z,53.17
2023-03-01T05:58:15.034Z,52.87
2023-03-01T06:00:43.988Z,54.93
2023-03-01T06:03:13.640Z,55.47
2023-03-01T06:05:42.552Z,54.47
2023-03-01T06:08:13.904Z,52.07
2023-03-01T06:10:42.225Z,54.00
2023-03-01T06:13:10.485Z,50.77
2023-03-01T06:15:39.105Z,56.17
2023-03-01T06:18:07.650Z,61.97
2023-03-01T06:20:35.684Z,61.70
2023-03-01T06:23:03.725Z,60.53
2023-03-01T06:25:33.208Z,63.37
2023-03-01T06:28:01.463Z,60.90
2023-03-01T06:30:29.502Z,60.60
2023-03-01T06:33:02.314Z,61.80
2023-03-01T06:35:32.216Z,59.07
2023-03-01T06:38:01.894Z,57.97
2023-03-01T06:40:30.056Z,56.23
2023-03-01T06:43:00.130Z,51.60
2023-03-01T06:45:28.171Z,49.33
2023-03-01T06:48:04.590Z,51.90
2023-03-01T06:50:32.833Z,53.43
2023-03-01T06:53:01.473Z,55.70
2023-03-01T06:55:29.583Z,53.43
2023-03-01T06:57:59.706Z,52.80
2023-03-01T07:00:28.948Z,52.30
2023-03-01T07:02:57.387Z,51.03
2023-03-01T07:05:25.492Z,53.37
2023-03-01T07:07:55.079Z,50.83
2023-03-01T07:10:23.244Z,51.87
2023-03-01T07:12:51.484Z,53.00
2023-03-01T07:15:20.870Z,49.57
2023-03-01T07:17:51.040Z,49.90
2023-03-01T07:20:19.884Z,49.47
2023-03-01T07:22:48.009Z,49.73
2023-03-01T07:25:16.160Z,52.03
2023-03-01T07:27:44.287Z,52.00
2023-03-01T07:30:13.225Z,52.07
2023-03-01T07:32:43.147Z,51.93
2023-03-01T07:35:11.720Z,51.07
2023-03-01T07:37:39.760Z,52.60
2023-03-01T07:40:09.528Z,54.03
2023-03-01T07:42:37.680Z,51.27
2023-03-01T07:45:07.446Z,48.83
2023-03-01T07:47:35.744Z,49.53
2023-03-01T07:50:06.458Z,48.40
2023-03-01T07:52:34.552Z,51.80
2023-03-01T07:55:02.598Z,50.10
2023-03-01T07:57:30.713Z,50.90
2023-03-01T07:59:58.793Z,49.00
2023-03-01T08:02:26.817Z,48.30
2023-03-01T08:04:54.932Z,49.33
2023-03-01T08:07:24.388Z,50.13
2023-03-01T08:09:52.474Z,47.03
2023-03-01T08:12:20.590Z,46.57
2023-03-01T08:14:48.704Z,45.37
2023-03-01T08:17:17.068Z,46.47
2023-03-01T08:19:45.660Z,46.47
2023-03-01T08:22:13.976Z,45.60
2023-03-01T08:24:43.404Z,44.53
2023-03-01T08:27:13.226Z,44.00
2023-03-01T08:29:41.243Z,44.80
2023-03-01T08:32:09.428Z,44.20
2023-03-01T08:34:37.650Z,45.57
2023-03-01T08:37:05.862Z,42.73
2023-03-01T08:39:34.086Z,42.30
2023-03-01T08:42:03.508Z,42.63
2023-03-01T08:44:31.612Z,42.67
2023-03-01T08:46:59.636Z,41.73
2023-03-01T08:49:27.711Z,41.83
2023-03-01T08:51:55.808Z,41.43
2023-03-01T08:54:24.512Z,42.47
2023-03-01T08:56:52.573Z,40.33
2023-03-01T08:59:22.071Z,38.37
2023-03-01T09:01:50.141Z,36.87
2023-03-01T09:04:18.468Z,36.63
2023-03-01T09:06:46.535Z,30.97
2023-03-01T09:09:17.128Z,29.87
2023-03-01T09:11:47.204Z,27.80
2023-03-01T09:14:16.145Z,27.03
2023-03-01T09:16:46.132Z,21.87
2023-03-01T09:19:14.983Z,20.60
2023-03-01T09:21:53.232Z,22.83
2023-03-01T09:24:23.711Z,25.53
2023-03-01T09:26:51.894Z,26.00
2023-03-01T09:29:20.019Z,22.50
2023-03-01T09:31:49.421Z,22.17
2023-03-01T09:34:24.140Z,23.27
2023-03-01T09:36:52.499Z,23.13
2023-03-01T09:39:21.569Z,23.27
2023-03-01T09:41:56.386Z,20.87
2023-03-01T09:44:35.048Z,19.70
2023-03-01T09:47:05.358Z,17.37
2023-03-01T09:49:37.380Z,18.33
2023-03-01T09:52:22.191Z,16.50
2023-03-01T09:55:00.749Z,15.37
2023-03-01T09:57:35.735Z,17.70
2023-03-01T10:00:15.534Z,16.93
2023-03-01T10:02:49.909Z,17.00
2023-03-01T10:05:37.123Z,18.93
2023-03-01T10:08:26.686Z,20.53
2023-03-01T10:10:55.797Z,20.63
2023-03-01T10:13:30.149Z,19.57
2023-03-01T10:16:03.934Z,22.47
2023-03-01T10:18:37.847Z,20.83
2023-03-01T10:21:16.261Z,20.73
2023-03-01T10:23:44.638Z,19.10
2023-03-01T10:26:34.860Z,17.00
2023-03-01T10:29:06.138Z,16.40
2023-03-01T10:31:43.982Z,16.30
2023-03-01T10:34:19.088Z,15.77
2023-03-01T10:36:50.949Z,16.00
2023-03-01T10:39:21.691Z,16.70
2023-03-01T10:42:01.776Z,19.77
2023-03-01T10:44:46.153Z,20.17
2023-03-01T10:47:22.224Z,19.90
2023-03-01T10:50:01.563Z,21.87
2023-03-01T10:52:32.985Z,23.03
2023-03-01T10:55:04.712Z,22.80
2023-03-01T10:57:42.673Z,25.20
2023-03-01T11:00:26.680Z,24.63
2023-03-01T11:03:13.024Z,26.77
2023-03-01T11:05:59.340Z,28.53
2023-03-01T11:08:38.991Z,29.23
2023-03-01T11:11:20.461Z,29.30
2023-03-01T11:13:58.107Z,29.43
2023-03-01T11:16:33.030Z,30.40
2023-03-01T11:19:16.571Z,29.73
2023-03-01T11:21:55.304Z,29.57
2023-03-01T11:24:31.292Z,29.33
2023-03-01T11:27:04.810Z,29.07
2023-03-01T11:29:48.539Z,30.83
2023-03-01T11:32:17.874Z,29.50
2023-03-01T11:34:51.388Z,28.20
2023-03-01T11:37:32.219Z,26.67
2023-03-01T11:40:22.274Z,25.87
2023-03-01T11:43:12.474Z,24.30
2023-03-01T11:45:49.989Z,26.47
2023-03-01T11:48:49.864Z,27.20
2023-03-01T11:51:26.757Z,24.53
2023-03-01T11:54:10.118Z,24.57
2023-03-01T11:56:42.949Z,23.33
2023-03-01T11:59:46.295Z,22.87
2023-03-01T12:02:48.627Z,22.13
2023-03-01T12:05:33.693Z,22.47
2023-03-01T12:08:11.066Z,21.17
2023-03-01T12:10:50.977Z,20.97
2023-03-01T12:13:32.864Z,21.00
2023-03-01T12:16:38.856Z,20.53
2023-03-01T12:19:21.878Z,20.00
2023-03-01T12:22:05.698Z,20.47
2023-03-01T12:24:48.755Z,20.50
2023-03-01T12:27:41.031Z,20.55
2023-03-01T12:30:26.145Z,19.48
2023-03-01T12:33:06.006Z,19.65
2023-03-01T12:35:56.276Z,21.20
2023-03-01T12:38:36.564Z,22.13
2023-03-01T12:41:22.283Z,20.88
2023-03-01T12:44:05.968Z,21.00
2023-03-01T12:46:47.218Z,21.08
2023-03-01T12:49:18.339Z,21.52
2023-03-01T12:51:56.889Z,19.50
2023-03-01T12:54:32.599Z,22.50
2023-03-01T12:57:12.212Z,20.50
2023-03-01T12:59:51.341Z,20.30
2023-03-01T13:02:26.989Z,20.50
2023-03-01T13:05:09.093Z,19.92
2023-03-01T13:07:43.402Z,19.42
2023-03-01T13:10:22.233Z,21.58
2023-03-01T13:13:05.555Z,21.45
2023-03-01T13:15:37.863Z,21.20
2023-03-01T13:18:30.909Z,21.33
2023-03-01T13:21:01.536Z,22.30
2023-03-01T13:23:33.258Z,21.85
2023-03-01T13:26:14.143Z,20.88
2023-03-01T13:28:51.149Z,21.13
2023-03-01T13:32:02.791Z,21.88
2023-03-01T13:34:56.612Z,20.63
2023-03-01T13:37:31.568Z,20.73
2023-03-01T13:40:05.260Z,20.38
2023-03-01T13:42:43.286Z,19.65
2023-03-01T13:45:26.619Z,19.63
2023-03-01T13:48:03.429Z,16.75
2023-03-01T13:50:41.123Z,15.45
2023-03-01T13:53:16.366Z,16.33
2023-03-01T13:55:47.597Z,17.55
2023-03-01T13:58:22.940Z,18.42
2023-03-01T14:00:58.404Z,16.77
2023-03-01T14:03:27.257Z,15.38
2023-03-01T14:06:15.678Z,15.63
2023-03-01T14:08:45.265Z,16.80
2023-03-01T14:11:53.270Z,17.42
2023-03-01T14:14:42.490Z,18.60
2023-03-01T14:17:30.662Z,17.75
2023-03-01T14:20:01.543Z,15.75
2023-03-01T14:22:34.248Z,15.98
2023-03-01T14:25:03.987Z,15.80
2023-03-01T14:27:37.400Z,15.20
2023-03-01T14:30:14.893Z,15.88
2023-03-01T14:32:43.198Z,15.90
2023-03-01T14:35:23.105Z,15.13
2023-03-01T14:37:52.767Z,15.45
2023-03-01T14:40:27.304Z,16.50
2023-03-01T14:42:57.230Z,16.58
2023-03-01T14:45:27.450Z,17.52
2023-03-01T14:47:57.096Z,17.13
2023-03-01T14:50:28.198Z,17.73
2023-03-01T14:53:01.016Z,16.35
2023-03-01T14:55:33.689Z,16.67
2023-03-01T14:58:03.541Z,16.65
2023-03-01T15:00:35.146Z,16.08
2023-03-01T15:03:14.351Z,16.65
2023-03-01T15:05:45.363Z,16.80
2023-03-01T15:08:21.532Z,17.48
2023-03-01T15:11:01.660Z,16.05
2023-03-01T15:13:34.099Z,15.93
2023-03-01T15:16:13.576Z,15.60
2023-03-01T15:18:47.210Z,16.60
2023-03-01T15:21:21.103Z,17.17
2023-03-01T15:23:56.401Z,17.20
2023-03-01T15:26:31.720Z,20.27
2023-03-01T15:29:02.112Z,16.63
2023-03-01T15:31:33.605Z,15.65
2023-03-01T15:34:13.554Z,14.60
2023-03-01T15:36:45.543Z,14.88
2023-03-01T15:39:34.095Z,14.45
2023-03-01T15:42:03.377Z,14.30
2023-03-01T15:44:42.699Z,13.35
2023-03-01T15:47:27.065Z,14.43
2023-03-01T15:49:56.797Z,13.67
2023-03-01T15:52:30.568Z,14.33
2023-03-01T15:55:03.730Z,13.50
2023-03-01T15:57:32.033Z,14.67
2023-03-01T16:00:00.245Z,14.27
2023-03-01T16:02:28.424Z,14.23
2023-03-01T16:04:57.562Z,15.20
2023-03-01T16:07:27.912Z,14.60
2023-03-01T16:09:56.007Z,15.20
2023-03-01T16:12:26.309Z,14.60
2023-03-01T16:14:55.096Z,14.97
2023-03-01T16:17:23.265Z,14.47
2023-03-01T16:19:51.572Z,15.60
2023-03-01T16:22:25.856Z,16.00
2023-03-01T16:24:54.137Z,15.13
2023-03-01T16:27:23.001Z,15.73
2023-03-01T16:29:52.547Z,17.27
2023-03-01T16:32:20.771Z,17.17
2023-03-01T16:34:50.404Z,15.77
2023-03-01T16:37:20.304Z,16.93
2023-03-01T16:39:49.901Z,16.73
2023-03-01T16:42:19.421Z,16.43
2023-03-01T16:44:47.509Z,16.70
2023-03-01T16:47:17.025Z,16.93
2023-03-01T16:49:45.300Z,16.13
2023-03-01T16:52:13.444Z,17.07
2023-03-01T16:54:41.655Z,18.07
2023-03-01T16:57:09.822Z,17.70
2023-03-01T16:59:38.449Z,18.17
2023-03-01T17:02:07.140Z,18.73
2023-03-01T17:04:36.631Z,18.80
2023-03-01T17:07:05.202Z,18.50
2023-03-01T17:09:36.783Z,19.43
2023-03-01T17:12:05.447Z,20.27
2023-03-01T17:14:33.639Z,20.60
2023-03-01T17:17:02.546Z,18.57
2023-03-01T17:19:30.604Z,18.67
2023-03-01T17:22:01.240Z,19.10
2023-03-01T17:24:30.152Z,19.13
2023-03-01T17:26:58.281Z,19.57
2023-03-01T17:29:26.503Z,19.47
2023-03-01T17:31:56.746Z,20.83
2023-03-01T17:34:25.592Z,21.90
2023-03-01T17:36:54.861Z,20.97
2023-03-01T17:39:28.627Z,23.63
2023-03-01T17:41:58.734Z,22.03
2023-03-01T17:44:27.265Z,21.50
2023-03-01T17:46:55.390Z,22.10
2023-03-01T17:49:23.724Z,22.43
2023-03-01T17:51:51.807Z,23.17
2023-03-01T17:54:19.876Z,23.70
2023-03-01T17:56:49.379Z,23.93
2023-03-01T17:59:18.757Z,24.60
2023-03-01T18:01:47.251Z,26.77
2023-03-01T18:04:15.725Z,30.97
2023-03-01T18:06:43.774Z,33.30
2023-03-01T18:09:12.072Z,41.50
2023-03-01T18:11:42.101Z,35.63
2023-03-01T18:14:11.504Z,40.10
2023-03-01T18:16:40.112Z,35.47
2023-03-01T18:19:08.289Z,36.30
2023-03-01T18:21:36.317Z,35.93
2023-03-01T18:24:04.536Z,37.43
2023-03-01T18:26:33.058Z,36.67
2023-03-01T18:29:03.528Z,38.13
2023-03-01T18:31:33.834Z,36.67
2023-03-01T18:34:02.207Z,35.70
2023-03-01T18:36:33.088Z,37.50
2023-03-01T18:39:02.925Z,32.87
2023-03-01T18:41:32.953Z,33.27
2023-03-01T18:44:02.536Z,33.43
2023-03-01T18:46:33.352Z,31.17
2023-03-01T18:49:02.827Z,32.23
2023-03-01T18:51:31.368Z,31.87
2023-03-01T18:53:59.951Z,40.43
2023-03-01T18:56:29.963Z,49.13
2023-03-01T18:58:59.514Z,47.97
2023-03-01T19:01:30.227Z,44.93
2023-03-01T19:04:00.260Z,45.90
2023-03-01T19:06:32.000Z,42.67
2023-03-01T19:09:01.334Z,43.17
2023-03-01T19:11:31.178Z,42.43
2023-03-01T19:14:01.011Z,37.33
2023-03-01T19:16:31.206Z,37.13
2023-03-01T19:19:03.065Z,34.73
2023-03-01T19:21:32.951Z,40.63
2023-03-01T19:24:03.992Z,46.40
2023-03-01T19:26:33.225Z,48.83
2023-03-01T19:29:02.991Z,48.60
2023-03-01T19:31:31.859Z,47.67
2023-03-01T19:34:11.097Z,44.30
2023-03-01T19:36:41.854Z,43.77
2023-03-01T19:39:11.500Z,42.40
2023-03-01T19:41:39.608Z,46.07
2023-03-01T19:44:08.751Z,48.83
2023-03-01T19:46:37.332Z,51.13
2023-03-01T19:49:07.869Z,50.30
2023-03-01T19:51:38.880Z,45.63
2023-03-01T19:54:09.915Z,40.90
2023-03-01T19:56:38.214Z,41.60
2023-03-01T19:59:06.951Z,43.30
2023-03-01T20:01:37.687Z,42.90
2023-03-01T20:04:09.142Z,44.03
2023-03-01T20:06:38.157Z,44.23
2023-03-01T20:09:19.280Z,44.27
2023-03-01T20:11:49.057Z,108.83
2023-03-01T20:14:17.152Z,118.53
2023-03-01T20:16:45.269Z,120.50
2023-03-01T20:19:14.714Z,113.27
2023-03-01T20:21:42.815Z,49.93
2023-03-01T20:24:10.944Z,45.37
2023-03-01T20:26:41.055Z,51.27
2023-03-01T20:29:09.936Z,46.03
2023-03-01T20:31:39.861Z,45.67
2023-03-01T20:34:08.233Z,45.67
2023-03-01T20:36:41.080Z,46.80
2023-03-01T20:39:09.760Z,45.97
2023-03-01T20:41:37.848Z,46.87
2023-03-01T20:44:06.770Z,47.53
2023-03-01T20:46:36.442Z,42.93
2023-03-01T20:49:06.432Z,45.13
2023-03-01T20:51:34.704Z,47.00
2023-03-01T20:54:05.177Z,46.40
2023-03-01T20:56:33.887Z,47.57
2023-03-01T20:59:05.904Z,46.77
2023-03-01T21:01:34.061Z,51.73
2023-03-01T21:04:02.477Z,50.70
2023-03-01T21:06:31.378Z,52.63
2023-03-01T21:08:59.707Z,52.50
2023-03-01T21:11:29.221Z,56.20
2023-03-01T21:13:57.632Z,56.80
2023-03-01T21:16:26.314Z,52.37
2023-03-01T21:18:55.793Z,52.53
2023-03-01T21:21:25.073Z,53.53
2023-03-01T21:23:54.587Z,52.63
2023-03-01T21:26:24.632Z,54.40
2023-03-01T21:28:57.187Z,56.33
2023-03-01T21:31:28.614Z,60.67
2023-03-01T21:33:58.986Z,61.03
2023-03-01T21:36:29.913Z,60.07
2023-03-01T21:39:01.621Z,59.10
2023-03-01T21:41:31.787Z,58.07
2023-03-01T21:44:03.187Z,59.13
2023-03-01T21:46:36.730Z,59.80
2023-03-01T21:49:07.275Z,59.57
2023-03-01T21:51:36.616Z,59.83
2023-03-01T21:54:05.656Z,60.27
2023-03-01T21:56:38.952Z,60.37
2023-03-01T21:59:10.344Z,60.93
2023-03-01T22:01:38.602Z,60.53
2023-03-01T22:04:06.822Z,59.73
2023-03-01T22:06:40.510Z,61.53
2023-03-01T22:09:11.064Z,59.83
2023-03-01T22:11:41.837Z,59.23
2023-03-01T22:14:13.609Z,60.17
2023-03-01T22:16:43.579Z,60.33
2023-03-01T22:19:12.107Z,62.37
2023-03-01T22:21:40.832Z,59.30
2023-03-01T22:24:10.278Z,58.20
2023-03-01T22:26:40.735Z,57.90
2023-03-01T22:29:12.124Z,57.83
2023-03-01T22:31:40.822Z,58.10
2023-03-01T22:34:09.109Z,60.47
2023-03-01T22:36:39.279Z,74.73
2023-03-01T22:39:07.739Z,84.53
2023-03-01T22:41:38.504Z,77.47
2023-03-01T22:44:06.830Z,69.97
2023-03-01T22:46:36.247Z,58.67
2023-03-01T22:49:05.379Z,57.23
2023-03-01T22:51:35.653Z,54.53
2023-03-01T22:54:04.138Z,53.83
2023-03-01T22:56:34.716Z,51.30
2023-03-01T22:59:05.224Z,49.90
2023-03-01T23:01:33.418Z,50.73
2023-03-01T23:04:03.640Z,51.40
2023-03-01T23:06:32.142Z,50.00
2023-03-01T23:09:04.224Z,49.87
2023-03-01T23:11:32.475Z,51.03
2023-03-01T23:14:00.731Z,51.70
2023-03-01T23:16:29.036Z,52.33
2023-03-01T23:19:01.643Z,50.57
2023-03-01T23:21:31.325Z,53.30
2023-03-01T23:23:59.438Z,59.63
2023-03-01T23:26:29.065Z,58.83
2023-03-01T23:28:57.266Z,55.40
2023-03-01T23:31:30.274Z,58.70
2023-03-01T23:33:58.401Z,62.80
2023-03-01T23:36:27.900Z,62.33
2023-03-01T23:38:59.934Z,56.97
2023-03-01T23:41:30.025Z,56.60
2023-03-01T23:44:00.378Z,53.30
2023-03-01T23:46:31.454Z,52.13
2023-03-01T23:49:00.458Z,56.33
2023-03-01T23:51:29.480Z,58.77
2023-03-01T23:54:02.438Z,55.30
2023-03-01T23:56:33.506Z,58.57
2023-03-01T23:59:03.577Z,59.97
